Time;durP1;ratioP1;P1;durP2;ratioP2;P2;SDS_P1;SDS_P2;PMS_P1;PMS_P2;Temp;Humidity;BMP_temperature;BMP_pressure;BME280_temperature;BME280_humidity;BME280_pressure;Samples;Min_cycle;Max_cycle;Signal;HPM_P1;HPM_P2
2023/12/31 00:01:43;;;;;;;0.20;0.10;;;;;;;-146.30;100.00;58188.94;10517874;28;20086;-89
2023/12/31 00:06:46;;;;;;;0.00;0.00;;;;;;;-146.30;100.00;58188.94;10478517;28;20044;-93
2023/12/31 00:11:47;;;;;;;0.00;0.00;;;;;;;-146.30;100.00;58188.94;10493421;28;20102;-90
2023/12/31 00:16:50;;;;;;;0.00;0.00;;;;;;;-146.30;100.00;58188.94;10493299;28;20132;-91
2023/12/31 00:21:52;;;;;;;0.20;0.10;;;;;;;-146.30;100.00;58188.94;10503687;28;20391;-89
2023/12/31 00:26:54;;;;;;;0.20;0.20;;;;;;;-146.30;100.00;58188.94;10492294;28;20537;-92
2023/12/31 00:31:56;;;;;;;0.40;0.40;;;;;;;-146.30;100.00;58188.94;10492919;28;20040;-89
2023/12/31 00:36:58;;;;;;;0.00;0.00;;;;;;;-146.30;100.00;58188.94;10479973;28;20508;-89
2023/12/31 00:42:00;;;;;;;0.00;0.00;;;;;;;-146.30;100.00;58188.94;10502542;28;20076;-90
2023/12/31 00:47:02;;;;;;;0.00;0.00;;;;;;;-146.30;100.00;58188.94;10513710;28;20048;-91
2023/12/31 00:52:04;;;;;;;0.00;0.00;;;;;;;-146.30;100.00;58188.94;10502071;28;20079;-91
2023/12/31 00:57:06;;;;;;;0.00;0.00;;;;;;;-146.30;100.00;58188.94;10485573;28;20415;-91
2023/12/31 01:02:08;;;;;;;0.08;0.00;;;;;;;-146.30;100.00;58188.94;10482991;28;20483;-90
2023/12/31 01:07:10;;;;;;;0.00;0.00;;;;;;;-146.30;100.00;58188.94;10483712;28;20384;-91
2023/12/31 01:12:13;;;;;;;0.00;0.00;;;;;;;-146.30;100.00;58188.94;10480722;28;20063;-91
2023/12/31 01:17:15;;;;;;;0.00;0.00;;;;;;;-146.30;100.00;58188.94;10480773;28;20044;-90
2023/12/31 01:22:17;;;;;;;0.20;0.20;;;;;;;-146.30;100.00;58188.94;10475214;28;20044;-91
2023/12/31 01:27:19;;;;;;;0.22;0.00;;;;;;;-146.30;100.00;58188.94;10482774;28;20048;-90
2023/12/31 01:32:21;;;;;;;0.00;0.00;;;;;;;-146.30;100.00;58188.94;10468135;28;20041;-92
2023/12/31 01:37:23;;;;;;;1.30;0.55;;;;;;;-146.30;100.00;58188.94;10483037;28;20072;-90
2023/12/31 01:42:25;;;;;;;0.70;0.43;;;;;;;-146.30;100.00;58188.94;10481310;28;20464;-90
2023/12/31 01:47:27;;;;;;;0.10;0.10;;;;;;;-146.30;100.00;58188.94;10483106;28;20090;-90
2023/12/31 01:52:30;;;;;;;0.05;0.03;;;;;;;-146.30;100.00;58188.94;10483028;28;20044;-90
2023/12/31 01:57:35;;;;;;;0.10;0.05;;;;;;;-146.30;100.00;58188.94;10480917;28;20040;-91
2023/12/31 02:02:37;;;;;;;0.38;0.30;;;;;;;-146.30;100.00;58188.94;10482168;28;20049;-90
2023/12/31 02:07:39;;;;;;;0.35;0.28;;;;;;;-146.30;100.00;58188.94;10479867;28;20055;-90
2023/12/31 02:12:41;;;;;;;0.00;0.00;;;;;;;-146.30;100.00;58188.94;10487655;28;20044;-90
2023/12/31 02:17:42;;;;;;;0.00;0.00;;;;;;;-146.30;100.00;58188.94;10482227;28;20098;-91
2023/12/31 02:22:45;;;;;;;2.55;0.63;;;;;;;-146.30;100.00;58188.94;10500794;28;20044;-91
2023/12/31 02:27:47;;;;;;;0.50;0.50;;;;;;;-146.30;100.00;58188.94;10482622;28;20052;-89
2023/12/31 02:32:49;;;;;;;0.00;0.00;;;;;;;-146.30;100.00;58188.94;10484785;28;20102;-91
2023/12/31 02:37:51;;;;;;;0.43;0.43;;;;;;;-146.30;100.00;58188.94;10481810;28;20487;-91
2023/12/31 02:43:28;;;;;;;1.85;0.10;;;;;;;-146.30;100.00;58188.94;10469910;28;20487;-90
2023/12/31 02:48:40;;;;;;;0.00;0.00;;;;;;;-146.30;100.00;58188.94;10462355;28;20135;-91
2023/12/31 02:53:42;;;;;;;0.00;0.00;;;;;;;-146.30;100.00;58188.94;10477820;28;20040;-91
2023/12/31 02:58:44;;;;;;;0.80;0.20;;;;;;;-146.30;100.00;58188.94;10475374;28;20135;-91
2023/12/31 03:03:47;;;;;;;0.03;0.03;;;;;;;-146.30;100.00;58188.94;10489617;28;20043;-90
2023/12/31 03:08:49;;;;;;;0.00;0.00;;;;;;;-146.30;100.00;58188.94;10450280;28;20483;-90
2023/12/31 03:13:50;;;;;;;0.10;0.10;;;;;;;-146.30;100.00;58188.94;10473235;28;20135;-91
2023/12/31 03:18:53;;;;;;;0.00;0.00;;;;;;;-146.30;100.00;58188.94;10471142;28;20098;-89
2023/12/31 03:23:55;;;;;;;0.00;0.00;;;;;;;-146.30;100.00;58188.94;10474678;28;20048;-89
2023/12/31 03:28:57;;;;;;;0.30;0.10;;;;;;;-146.30;100.00;58188.94;10493690;28;20515;-91
2023/12/31 03:33:59;;;;;;;0.05;0.05;;;;;;;-146.30;100.00;58188.94;10497629;28;20048;-91
2023/12/31 03:39:02;;;;;;;0.05;0.05;;;;;;;-146.30;100.00;58188.94;10475574;28;20052;-92
2023/12/31 03:44:04;;;;;;;0.63;0.10;;;;;;;-146.30;100.00;58188.94;10469120;28;20045;-90
2023/12/31 03:49:06;;;;;;;0.68;0.20;;;;;;;-146.30;100.00;58188.94;10471347;28;20044;-91
2023/12/31 03:54:09;;;;;;;0.40;0.35;;;;;;;-146.30;100.00;58188.94;10492287;28;20052;-90
2023/12/31 03:59:10;;;;;;;0.00;0.00;;;;;;;-146.30;100.00;58188.94;10453073;28;20074;-92
2023/12/31 04:04:14;;;;;;;0.00;0.00;;;;;;;-146.30;100.00;58188.94;10472460;28;20132;-92
2023/12/31 04:09:16;;;;;;;0.38;0.30;;;;;;;-146.30;100.00;58188.94;10472907;28;20076;-91
2023/12/31 04:14:18;;;;;;;0.00;0.00;;;;;;;-146.30;100.00;58188.94;10459095;28;20102;-89
2023/12/31 04:19:20;;;;;;;2.53;0.65;;;;;;;-146.30;100.00;58188.94;10447743;28;20064;-91
2023/12/31 04:24:22;;;;;;;0.03;0.03;;;;;;;-146.30;100.00;58188.94;10459945;28;20077;-92
2023/12/31 04:29:24;;;;;;;0.57;0.30;;;;;;;-146.30;100.00;58188.94;10462938;28;20090;-93
2023/12/31 04:34:26;;;;;;;0.00;0.00;;;;;;;-146.30;100.00;58188.94;10484538;28;20055;-91
2023/12/31 04:39:28;;;;;;;0.15;0.08;;;;;;;-146.30;100.00;58188.94;10478952;28;20058;-92
2023/12/31 04:44:30;;;;;;;0.10;0.10;;;;;;;-146.30;100.00;58188.94;10471799;28;20090;-92
2023/12/31 04:49:33;;;;;;;0.10;0.10;;;;;;;-146.30;100.00;58188.94;10463002;28;20102;-92
2023/12/31 04:54:36;;;;;;;0.15;0.10;;;;;;;-146.30;100.00;58188.94;10455248;28;20052;-90
2023/12/31 04:59:39;;;;;;;0.70;0.35;;;;;;;-146.30;100.00;58188.94;10439869;28;20055;-91
2023/12/31 05:04:41;;;;;;;0.55;0.55;;;;;;;-146.30;100.00;58188.94;10488315;28;20507;-90
2023/12/31 05:09:43;;;;;;;0.30;0.28;;;;;;;-146.30;100.00;58188.94;10477392;28;20119;-90
2023/12/31 05:14:45;;;;;;;0.00;0.00;;;;;;;-146.30;100.00;58188.94;10480886;28;20483;-90
2023/12/31 05:19:47;;;;;;;0.35;0.20;;;;;;;-146.30;100.00;58188.94;10479998;28;20041;-93
2023/12/31 05:24:49;;;;;;;0.17;0.03;;;;;;;-146.30;100.00;58188.94;10465774;28;20178;-91
2023/12/31 05:29:51;;;;;;;0.70;0.30;;;;;;;-146.30;100.00;58188.94;10479717;28;20111;-91
2023/12/31 05:34:53;;;;;;;0.00;0.00;;;;;;;-146.30;100.00;58188.94;10462151;28;20506;-92
2023/12/31 05:39:55;;;;;;;0.38;0.17;;;;;;;-146.30;100.00;58188.94;10470451;28;20399;-91
2023/12/31 05:44:58;;;;;;;10.43;0.57;;;;;;;-146.30;100.00;58188.94;10490162;28;20560;-89
2023/12/31 05:50:01;;;;;;;0.00;0.00;;;;;;;-146.30;100.00;58188.94;10485573;28;20053;-93
2023/12/31 05:55:04;;;;;;;0.35;0.20;;;;;;;-146.30;100.00;58188.94;10459316;28;20095;-91
2023/12/31 06:00:07;;;;;;;0.75;0.57;;;;;;;-146.30;100.00;58188.94;10483836;28;20079;-91
2023/12/31 06:05:15;;;;;;;0.00;0.00;;;;;;;-146.30;100.00;58188.94;10474012;28;20246;-89
2023/12/31 06:10:17;;;;;;;2.53;0.38;;;;;;;-146.30;100.00;58188.94;10493134;28;20041;-89
2023/12/31 06:15:19;;;;;;;0.25;0.10;;;;;;;-146.30;100.00;58188.94;10456981;28;20051;-92
2023/12/31 06:20:21;;;;;;;0.00;0.00;;;;;;;-146.30;100.00;58188.94;10463863;28;20127;-90
2023/12/31 06:25:23;;;;;;;0.00;0.00;;;;;;;-146.30;100.00;58188.94;10478973;28;20475;-90
2023/12/31 06:30:26;;;;;;;0.45;0.20;;;;;;;-146.30;100.00;58188.94;10466322;28;20075;-92
2023/12/31 06:35:28;;;;;;;0.60;0.35;;;;;;;-146.30;100.00;58188.94;10499730;28;20059;-92
2023/12/31 06:40:30;;;;;;;0.17;0.10;;;;;;;-146.30;100.00;58188.94;10488690;28;20044;-89
2023/12/31 06:45:32;;;;;;;0.10;0.08;;;;;;;-146.30;100.00;58188.94;10476873;28;20040;-92
2023/12/31 06:50:36;;;;;;;0.35;0.15;;;;;;;-146.30;100.00;58188.94;10494832;28;20037;-91
2023/12/31 06:55:38;;;;;;;0.00;0.00;;;;;;;-146.30;100.00;58188.94;10487753;28;20396;-93
2023/12/31 07:00:40;;;;;;;0.00;0.00;;;;;;;-146.30;100.00;58188.94;10459023;28;20052;-90
2023/12/31 07:05:42;;;;;;;0.20;0.00;;;;;;;-146.30;100.00;58188.94;10449534;28;20059;-91
2023/12/31 07:10:44;;;;;;;0.00;0.00;;;;;;;-146.30;100.00;58188.94;10460644;28;20048;-91
2023/12/31 07:15:45;;;;;;;0.00;0.00;;;;;;;-146.30;100.00;58188.94;10474928;28;20494;-91
2023/12/31 07:20:49;;;;;;;0.00;0.00;;;;;;;-146.30;100.00;58188.94;10483676;28;20041;-91
2023/12/31 07:25:51;;;;;;;0.45;0.40;;;;;;;-146.30;100.00;58188.94;10475054;28;20574;-93
2023/12/31 07:30:52;;;;;;;0.00;0.00;;;;;;;-146.30;100.00;58188.94;10450585;28;20048;-90
2023/12/31 07:35:54;;;;;;;0.15;0.10;;;;;;;-146.30;100.00;58188.94;10461576;28;20041;-90
2023/12/31 07:40:56;;;;;;;0.20;0.20;;;;;;;-146.30;100.00;58188.94;10464741;28;20071;-91
2023/12/31 07:45:58;;;;;;;0.30;0.20;;;;;;;-146.30;100.00;58188.94;10459097;28;20051;-90
2023/12/31 07:51:03;;;;;;;0.20;0.20;;;;;;;-146.30;100.00;58188.94;10452149;28;20071;-93
2023/12/31 07:56:05;;;;;;;0.57;0.32;;;;;;;-146.30;100.00;58188.94;10449007;28;20053;-93
2023/12/31 08:01:09;;;;;;;0.40;0.38;;;;;;;-146.30;100.00;58188.94;10459656;28;20060;-90
2023/12/31 08:06:10;;;;;;;0.10;0.10;;;;;;;-146.30;100.00;58188.94;10461931;28;20124;-92
2023/12/31 08:11:13;;;;;;;0.77;0.55;;;;;;;-146.30;100.00;58188.94;10475478;28;20448;-94
2023/12/31 08:16:14;;;;;;;0.00;0.00;;;;;;;-146.30;100.00;58188.94;10447908;28;20049;-92
2023/12/31 08:21:17;;;;;;;0.80;0.50;;;;;;;-146.30;100.00;58188.94;10467790;28;20479;-93
2023/12/31 08:26:18;;;;;;;0.10;0.10;;;;;;;-146.30;100.00;58188.94;10475745;28;20053;-93
2023/12/31 08:31:20;;;;;;;1.35;0.47;;;;;;;-146.30;100.00;58188.94;10463995;28;20053;-91
2023/12/31 08:36:22;;;;;;;0.20;0.00;;;;;;;-146.30;100.00;58188.94;10460299;28;20099;-90
2023/12/31 08:41:24;;;;;;;0.80;0.25;;;;;;;-146.30;100.00;58188.94;10470645;28;20537;-92
2023/12/31 08:46:26;;;;;;;0.10;0.10;;;;;;;-146.30;100.00;58188.94;10422717;28;20057;-91
2023/12/31 08:51:28;;;;;;;0.47;0.20;;;;;;;-146.30;100.00;58188.94;10442436;28;20044;-90
2023/12/31 08:56:29;;;;;;;0.22;0.22;;;;;;;-146.30;100.00;58188.94;10449205;28;20518;-89
2023/12/31 09:01:31;;;;;;;0.08;0.00;;;;;;;-146.30;100.00;58188.94;10446250;28;20129;-89
2023/12/31 09:06:33;;;;;;;0.00;0.00;;;;;;;-146.30;100.00;58188.94;10458080;28;20045;-88
2023/12/31 09:11:35;;;;;;;0.05;0.05;;;;;;;-146.30;100.00;58188.94;10447971;28;20084;-89
2023/12/31 09:16:37;;;;;;;0.32;0.32;;;;;;;-146.30;100.00;58188.94;10467943;28;20051;-88
2023/12/31 09:21:38;;;;;;;0.20;0.20;;;;;;;-146.30;100.00;58188.94;10425690;28;20041;-89
2023/12/31 09:26:40;;;;;;;0.00;0.00;;;;;;;-146.30;100.00;58188.94;10442057;28;20052;-90
2023/12/31 09:31:42;;;;;;;0.05;0.05;;;;;;;-146.30;100.00;58188.94;10442563;28;20048;-90
2023/12/31 09:36:45;;;;;;;0.88;0.60;;;;;;;-146.30;100.00;58188.94;10453057;28;20041;-88
2023/12/31 09:41:49;;;;;;;2.10;0.63;;;;;;;-146.30;100.00;58188.94;10498089;28;20053;-88
2023/12/31 09:47:08;;;;;;;0.57;0.38;;;;;;;-146.30;100.00;58188.94;10417120;28;20057;-91
2023/12/31 09:52:13;;;;;;;0.88;0.38;;;;;;;-146.30;100.00;58188.94;10466268;28;20041;-90
2023/12/31 09:57:16;;;;;;;0.03;0.00;;;;;;;-146.30;100.00;58188.94;10457839;28;20072;-87
2023/12/31 10:02:21;;;;;;;0.90;0.65;;;;;;;-146.30;100.00;58188.94;10477996;28;20042;-88
2023/12/31 10:07:24;;;;;;;0.43;0.43;;;;;;;-146.30;100.00;58188.94;10450068;28;20044;-89
2023/12/31 10:12:27;;;;;;;0.82;0.30;;;;;;;-146.30;100.00;58188.94;10417962;28;20041;-88
2023/12/31 10:17:31;;;;;;;0.93;0.38;;;;;;;-146.30;100.00;58188.94;10423393;28;20408;-90
2023/12/31 10:22:35;;;;;;;1.33;0.73;;;;;;;-146.30;100.00;58188.94;10463728;28;20071;-86
2023/12/31 10:27:37;;;;;;;0.47;0.25;;;;;;;-146.30;100.00;58188.94;10444845;28;20045;-89
2023/12/31 10:32:39;;;;;;;0.10;0.10;;;;;;;-146.30;100.00;58188.94;10438785;28;20079;-88
2023/12/31 10:37:41;;;;;;;0.20;0.20;;;;;;;-146.30;100.00;58188.94;10454528;28;20083;-88
2023/12/31 10:42:46;;;;;;;0.10;0.10;;;;;;;-146.30;100.00;58188.94;10458712;28;20629;-89
2023/12/31 10:47:53;;;;;;;0.00;0.00;;;;;;;-146.30;100.00;58188.94;10439124;28;20464;-89
2023/12/31 10:53:01;;;;;;;0.63;0.40;;;;;;;-146.30;100.00;58188.94;10441397;28;20049;-88
2023/12/31 10:58:04;;;;;;;0.10;0.10;;;;;;;-146.30;100.00;58188.94;10442582;28;20072;-90
2023/12/31 11:03:10;;;;;;;0.40;0.17;;;;;;;-146.30;100.00;58188.94;10431406;28;20045;-88
2023/12/31 11:08:14;;;;;;;1.10;0.40;;;;;;;-146.30;100.00;58188.94;10452297;28;20053;-87
2023/12/31 11:13:18;;;;;;;0.20;0.20;;;;;;;-146.30;100.00;58188.94;10418194;28;20131;-90
2023/12/31 11:18:54;;;;;;;0.00;0.00;;;;;;;-146.30;100.00;58188.94;10453276;28;20045;-91
2023/12/31 11:24:10;;;;;;;0.00;0.00;;;;;;;-146.30;100.00;58188.94;10483796;28;20102;-89
2023/12/31 11:29:13;;;;;;;0.08;0.00;;;;;;;-146.30;100.00;58188.94;10443471;28;20607;-91
2023/12/31 11:34:14;;;;;;;2.13;0.88;;;;;;;-146.30;100.00;58188.94;10450469;28;20439;-89
2023/12/31 11:39:16;;;;;;;0.47;0.10;;;;;;;-146.30;100.00;58188.94;10429753;28;20103;-91
2023/12/31 11:44:43;;;;;;;0.20;0.15;;;;;;;-146.30;100.00;58188.94;10466684;28;20136;-89
2023/12/31 11:49:54;;;;;;;0.00;0.00;;;;;;;-146.30;100.00;58188.94;10452448;28;20522;-89
2023/12/31 11:54:58;;;;;;;0.00;0.00;;;;;;;-146.30;100.00;58188.94;10419755;28;20056;-90
2023/12/31 12:00:01;;;;;;;0.05;0.03;;;;;;;-146.30;100.00;58188.94;10421391;28;20041;-90
2023/12/31 12:05:05;;;;;;;1.40;1.00;;;;;;;-146.30;100.00;58188.94;10435112;28;20057;-88
2023/12/31 12:10:08;;;;;;;0.10;0.10;;;;;;;-146.30;100.00;58188.94;10459559;28;20131;-90
2023/12/31 12:15:10;;;;;;;0.00;0.00;;;;;;;-146.30;100.00;58188.94;10428883;28;20056;-85
2023/12/31 12:20:13;;;;;;;0.00;0.00;;;;;;;-146.30;100.00;58188.94;10435268;28;20055;-85
2023/12/31 12:25:15;;;;;;;0.00;0.00;;;;;;;-146.30;100.00;58188.94;10450170;28;20053;-83
2023/12/31 12:30:17;;;;;;;0.10;0.10;;;;;;;-146.30;100.00;58188.94;10426286;28;20506;-83
2023/12/31 12:35:21;;;;;;;0.00;0.00;;;;;;;-146.30;100.00;58188.94;10450014;28;20045;-84
2023/12/31 12:40:23;;;;;;;0.00;0.00;;;;;;;-146.30;100.00;58188.94;10457463;28;20488;-86
2023/12/31 12:45:26;;;;;;;0.00;0.00;;;;;;;-146.30;100.00;58188.94;10429156;28;20515;-85
2023/12/31 12:50:30;;;;;;;0.00;0.00;;;;;;;-146.30;100.00;58188.94;10440910;28;20033;-86
2023/12/31 12:55:32;;;;;;;0.00;0.00;;;;;;;-146.30;100.00;58188.94;10442095;28;20059;-85
2023/12/31 13:00:34;;;;;;;0.00;0.00;;;;;;;-146.30;100.00;58188.94;10449734;28;20052;-85
2023/12/31 13:05:35;;;;;;;0.00;0.00;;;;;;;-146.30;100.00;58188.94;10475605;28;20088;-85
2023/12/31 13:10:37;;;;;;;0.00;0.00;;;;;;;-146.30;100.00;58188.94;10464411;28;20048;-84
2023/12/31 13:15:42;;;;;;;0.35;0.10;;;;;;;-146.30;100.00;58188.94;10444432;28;20057;-84
2023/12/31 13:20:44;;;;;;;0.00;0.00;;;;;;;-146.30;100.00;58188.94;10457205;28;20056;-84
2023/12/31 13:25:46;;;;;;;0.00;0.00;;;;;;;-146.30;100.00;58188.94;10440075;28;20080;-85
2023/12/31 13:30:49;;;;;;;0.00;0.00;;;;;;;-146.30;100.00;58188.94;10469844;28;20049;-84
2023/12/31 13:35:51;;;;;;;0.05;0.05;;;;;;;-146.30;100.00;58188.94;10444619;28;20056;-85
2023/12/31 13:40:54;;;;;;;0.00;0.00;;;;;;;-146.30;100.00;58188.94;10429541;28;20055;-85
2023/12/31 13:45:58;;;;;;;4.50;1.05;;;;;;;-146.30;100.00;58188.94;10451078;28;20484;-85
2023/12/31 13:51:00;;;;;;;0.00;0.00;;;;;;;-146.30;100.00;58188.94;10430620;28;20481;-85
2023/12/31 13:56:03;;;;;;;0.00;0.00;;;;;;;-146.30;100.00;58188.94;10472231;28;20506;-85
2023/12/31 14:01:05;;;;;;;0.00;0.00;;;;;;;-146.30;100.00;58188.94;10466011;28;20450;-84
2023/12/31 14:06:07;;;;;;;0.30;0.10;;;;;;;-146.30;100.00;58188.94;10448593;28;20056;-85
2023/12/31 14:11:09;;;;;;;0.00;0.00;;;;;;;-146.30;100.00;58188.94;10437573;28;20052;-85
2023/12/31 14:16:11;;;;;;;0.00;0.00;;;;;;;-146.30;100.00;58188.94;10441258;28;20048;-85
2023/12/31 14:21:13;;;;;;;0.13;0.10;;;;;;;-146.30;100.00;58188.94;10442722;28;20873;-86
2023/12/31 14:26:15;;;;;;;0.00;0.00;;;;;;;-146.30;100.00;58188.94;10436499;28;20052;-85
2023/12/31 14:31:16;;;;;;;0.00;0.00;;;;;;;-146.30;100.00;58188.94;10435614;28;20468;-84
2023/12/31 14:36:18;;;;;;;0.00;0.00;;;;;;;-146.30;100.00;58188.94;10441153;28;20634;-85
2023/12/31 14:41:20;;;;;;;1.25;0.17;;;;;;;-146.30;100.00;58188.94;10421891;28;20049;-85
2023/12/31 14:46:22;;;;;;;0.00;0.00;;;;;;;-146.30;100.00;58188.94;10450079;28;20499;-85
2023/12/31 14:51:24;;;;;;;0.10;0.00;;;;;;;-146.30;100.00;58188.94;10443331;28;20052;-85
2023/12/31 14:56:27;;;;;;;0.05;0.00;;;;;;;-146.30;100.00;58188.94;10483643;28;20068;-84
2023/12/31 15:01:29;;;;;;;0.00;0.00;;;;;;;-146.30;100.00;58188.94;10479491;28;20128;-85
2023/12/31 15:06:31;;;;;;;0.00;0.00;;;;;;;-146.30;100.00;58188.94;10477938;28;20052;-85
2023/12/31 15:11:33;;;;;;;0.10;0.10;;;;;;;-146.30;100.00;58188.94;10461705;28;20080;-85
2023/12/31 15:16:37;;;;;;;0.00;0.00;;;;;;;-146.30;100.00;58188.94;10478649;28;20060;-84
2023/12/31 15:21:39;;;;;;;0.43;0.08;;;;;;;-146.30;100.00;58188.94;10475236;28;20037;-84
2023/12/31 15:26:42;;;;;;;0.82;0.47;;;;;;;-146.30;100.00;58188.94;10462976;28;20056;-85
2023/12/31 15:31:45;;;;;;;1.05;0.35;;;;;;;-146.30;100.00;58188.94;10463048;28;20045;-86
2023/12/31 15:36:47;;;;;;;0.00;0.00;;;;;;;-146.30;100.00;58188.94;10469906;28;20428;-85
2023/12/31 15:41:49;;;;;;;0.00;0.00;;;;;;;-146.30;100.00;58188.94;10455254;28;20068;-86
2023/12/31 15:46:51;;;;;;;0.00;0.00;;;;;;;-146.30;100.00;58188.94;10445877;28;20131;-88
2023/12/31 15:51:53;;;;;;;0.00;0.00;;;;;;;-146.30;100.00;58188.94;10472524;28;20530;-85
2023/12/31 15:56:55;;;;;;;0.00;0.00;;;;;;;-146.30;100.00;58188.94;10449015;28;20468;-87
2023/12/31 16:01:57;;;;;;;0.55;0.47;;;;;;;-146.30;100.00;58188.94;10469302;28;20516;-86
2023/12/31 16:06:59;;;;;;;0.85;0.77;;;;;;;-146.30;100.00;58188.94;10477594;28;20130;-86
2023/12/31 16:12:00;;;;;;;0.10;0.10;;;;;;;-146.30;100.00;58188.94;10448862;28;20045;-87
2023/12/31 16:17:03;;;;;;;0.57;0.43;;;;;;;-146.30;100.00;58188.94;10479325;28;20067;-85
2023/12/31 16:22:06;;;;;;;0.00;0.00;;;;;;;-146.30;100.00;58188.94;10445755;28;20051;-86
2023/12/31 16:27:07;;;;;;;0.00;0.00;;;;;;;-146.30;100.00;58188.94;10444618;28;20419;-86
2023/12/31 16:32:09;;;;;;;0.00;0.00;;;;;;;-146.30;100.00;58188.94;10460634;28;20072;-84
2023/12/31 16:37:11;;;;;;;0.43;0.30;;;;;;;-146.30;100.00;58188.94;10440741;28;20076;-85
2023/12/31 16:42:13;;;;;;;0.00;0.00;;;;;;;-146.30;100.00;58188.94;10496330;28;20114;-85
2023/12/31 16:47:19;;;;;;;0.57;0.10;;;;;;;-146.30;100.00;58188.94;10459708;28;20374;-86
2023/12/31 16:52:20;;;;;;;0.00;0.00;;;;;;;-146.30;100.00;58188.94;10455196;28;20037;-85
2023/12/31 16:57:23;;;;;;;11.07;1.25;;;;;;;-146.30;100.00;58188.94;10453404;28;20099;-86
2023/12/31 17:02:25;;;;;;;0.20;0.20;;;;;;;-146.30;100.00;58188.94;10458626;28;20064;-86
2023/12/31 17:07:27;;;;;;;0.00;0.00;;;;;;;-146.30;100.00;58188.94;10471632;28;20098;-85
2023/12/31 17:12:30;;;;;;;2.45;0.55;;;;;;;-146.30;100.00;58188.94;10456702;28;20374;-86
2023/12/31 17:17:32;;;;;;;0.30;0.20;;;;;;;-146.30;100.00;58188.94;10472938;28;20045;-86
2023/12/31 17:22:35;;;;;;;1.23;0.85;;;;;;;-146.30;100.00;58188.94;10465352;28;20040;-87
2023/12/31 17:27:37;;;;;;;0.20;0.20;;;;;;;-146.30;100.00;58188.94;10432803;28;20385;-87
2023/12/31 17:32:39;;;;;;;0.32;0.32;;;;;;;-146.30;100.00;58188.94;10436991;28;20124;-85
2023/12/31 17:37:41;;;;;;;0.13;0.13;;;;;;;-146.30;100.00;58188.94;10473846;28;20072;-87
2023/12/31 17:42:43;;;;;;;0.00;0.00;;;;;;;-146.30;100.00;58188.94;10453665;28;20072;-86
2023/12/31 17:47:45;;;;;;;0.30;0.28;;;;;;;-146.30;100.00;58188.94;10492971;28;20048;-86
2023/12/31 17:52:47;;;;;;;2.60;0.75;;;;;;;-146.30;100.00;58188.94;10443443;28;20043;-86
2023/12/31 17:57:49;;;;;;;0.10;0.10;;;;;;;-146.30;100.00;58188.94;10456862;28;20044;-87
2023/12/31 18:02:51;;;;;;;0.55;0.55;;;;;;;-146.30;100.00;58188.94;10453645;28;20475;-87
2023/12/31 18:07:53;;;;;;;0.13;0.13;;;;;;;-146.30;100.00;58188.94;10470428;28;20052;-86
2023/12/31 18:12:55;;;;;;;0.00;0.00;;;;;;;-146.30;100.00;58188.94;10461955;28;20037;-86
2023/12/31 18:17:57;;;;;;;0.00;0.00;;;;;;;-146.30;100.00;58188.94;10466763;28;20040;-86
2023/12/31 18:22:59;;;;;;;1.60;0.20;;;;;;;-146.30;100.00;58188.94;10458248;28;20048;-86
2023/12/31 18:28:01;;;;;;;3.85;0.57;;;;;;;-146.30;100.00;58188.94;10475475;28;20048;-86
2023/12/31 18:33:04;;;;;;;0.38;0.32;;;;;;;-146.30;100.00;58188.94;10441251;28;20091;-87
2023/12/31 18:38:07;;;;;;;2.58;0.43;;;;;;;-146.30;100.00;58188.94;10466457;28;20049;-86
2023/12/31 18:43:09;;;;;;;0.32;0.32;;;;;;;-146.30;100.00;58188.94;10462947;28;20068;-85
2023/12/31 18:48:11;;;;;;;0.55;0.35;;;;;;;-146.30;100.00;58188.94;10455075;28;20064;-85
2023/12/31 18:53:13;;;;;;;0.43;0.43;;;;;;;-146.30;100.00;58188.94;10456911;28;20045;-86
2023/12/31 18:58:16;;;;;;;0.30;0.20;;;;;;;-146.30;100.00;58188.94;10477284;28;20596;-85
2023/12/31 19:03:17;;;;;;;0.47;0.45;;;;;;;-146.30;100.00;58188.94;10455681;28;20041;-86
2023/12/31 19:08:19;;;;;;;0.10;0.10;;;;;;;-146.30;100.00;58188.94;10434383;28;20721;-85
2023/12/31 19:13:21;;;;;;;0.20;0.17;;;;;;;-146.30;100.00;58188.94;10447353;28;20103;-86
2023/12/31 19:18:23;;;;;;;0.10;0.10;;;;;;;-146.30;100.00;58188.94;10466328;28;20049;-86
2023/12/31 19:23:28;;;;;;;0.17;0.17;;;;;;;-146.30;100.00;58188.94;10466673;28;20049;-86
2023/12/31 19:28:30;;;;;;;0.00;0.00;;;;;;;-146.30;100.00;58188.94;10462716;28;20136;-85
2023/12/31 19:33:32;;;;;;;0.30;0.30;;;;;;;-146.30;100.00;58188.94;10453500;28;20037;-85
2023/12/31 19:38:34;;;;;;;0.20;0.10;;;;;;;-146.30;100.00;58188.94;10458796;28;20052;-87
2023/12/31 19:43:36;;;;;;;0.28;0.20;;;;;;;-146.30;100.00;58188.94;10446781;28;20135;-85
2023/12/31 19:48:58;;;;;;;0.00;0.00;;;;;;;-146.30;100.00;58188.94;10473439;28;20047;-85
2023/12/31 19:54:00;;;;;;;1.17;0.45;;;;;;;-146.30;100.00;58188.94;10457166;28;20090;-85
2023/12/31 19:59:06;;;;;;;2.85;1.08;;;;;;;-146.30;100.00;58188.94;10463674;28;20048;-85
2023/12/31 20:04:08;;;;;;;0.00;0.00;;;;;;;-146.30;100.00;58188.94;10436049;28;20048;-85
2023/12/31 20:09:10;;;;;;;1.60;1.40;;;;;;;-146.30;100.00;58188.94;10509709;28;20045;-87
2023/12/31 20:14:13;;;;;;;0.00;0.00;;;;;;;-146.30;100.00;58188.94;10478461;28;20045;-85
2023/12/31 20:19:15;;;;;;;0.10;0.10;;;;;;;-146.30;100.00;58188.94;10435150;28;20049;-85
2023/12/31 20:24:18;;;;;;;0.60;0.55;;;;;;;-146.30;100.00;58188.94;10476956;28;20040;-85
2023/12/31 20:29:20;;;;;;;1.25;0.40;;;;;;;-146.30;100.00;58188.94;10461219;28;20151;-85
2023/12/31 20:34:21;;;;;;;0.60;0.38;;;;;;;-146.30;100.00;58188.94;10478393;28;20095;-86
2023/12/31 20:39:23;;;;;;;0.40;0.22;;;;;;;-146.30;100.00;58188.94;10458899;28;20052;-85
2023/12/31 20:44:25;;;;;;;0.47;0.20;;;;;;;-146.30;100.00;58188.94;10454884;28;20576;-85
2023/12/31 20:49:28;;;;;;;0.22;0.00;;;;;;;-146.30;100.00;58188.94;10471951;28;20541;-85
2023/12/31 20:54:33;;;;;;;0.35;0.35;;;;;;;-146.30;100.00;58188.94;10463203;28;20136;-85
2023/12/31 20:59:38;;;;;;;0.85;0.40;;;;;;;-146.30;100.00;58188.94;10442799;28;20063;-86
2023/12/31 21:04:41;;;;;;;0.35;0.10;;;;;;;-146.30;100.00;58188.94;10456926;28;20036;-87
2023/12/31 21:09:43;;;;;;;0.40;0.40;;;;;;;-146.30;100.00;58188.94;10480647;28;20049;-86
2023/12/31 21:14:45;;;;;;;0.57;0.32;;;;;;;-146.30;100.00;58188.94;10447972;28;20048;-86
2023/12/31 21:19:47;;;;;;;0.13;0.13;;;;;;;-146.30;100.00;58188.94;10480155;28;20443;-84
2023/12/31 21:24:49;;;;;;;0.43;0.43;;;;;;;-146.30;100.00;58188.94;10455661;28;20055;-84
2023/12/31 21:29:51;;;;;;;0.38;0.35;;;;;;;-146.30;100.00;58188.94;10481825;28;20045;-85
2023/12/31 21:34:52;;;;;;;1.20;0.30;;;;;;;-146.30;100.00;58188.94;10464264;28;20059;-85
2023/12/31 21:39:54;;;;;;;0.30;0.28;;;;;;;-146.30;100.00;58188.94;10469445;28;20415;-85
2023/12/31 21:44:56;;;;;;;0.00;0.00;;;;;;;-146.30;100.00;58188.94;10474876;28;20460;-86
2023/12/31 21:49:58;;;;;;;0.00;0.00;;;;;;;-146.30;100.00;58188.94;10461486;28;20052;-84
2023/12/31 21:55:00;;;;;;;0.00;0.00;;;;;;;-146.30;100.00;58188.94;10484900;28;20041;-85
2023/12/31 22:00:09;;;;;;;0.32;0.20;;;;;;;-146.30;100.00;58188.94;10465425;28;20052;-85
2023/12/31 22:05:12;;;;;;;1.55;0.17;;;;;;;-146.30;100.00;58188.94;10464020;28;20068;-86
2023/12/31 22:10:14;;;;;;;0.15;0.15;;;;;;;-146.30;100.00;58188.94;10443627;28;20118;-85
2023/12/31 22:15:16;;;;;;;0.00;0.00;;;;;;;-146.30;100.00;58188.94;10464650;28;20442;-85
2023/12/31 22:20:18;;;;;;;0.20;0.17;;;;;;;-146.30;100.00;58188.94;10481022;28;20080;-84
2023/12/31 22:25:20;;;;;;;0.55;0.17;;;;;;;-146.30;100.00;58188.94;10462132;28;20078;-86
2023/12/31 22:30:22;;;;;;;0.00;0.00;;;;;;;-146.30;100.00;58188.94;10477309;28;20083;-85
2023/12/31 22:35:24;;;;;;;0.20;0.10;;;;;;;-146.30;100.00;58188.94;10443578;28;20037;-84
2023/12/31 22:40:26;;;;;;;0.25;0.20;;;;;;;-146.30;100.00;58188.94;10482051;28;20091;-85